createdAt,value
2022-11-20T00:01:25.996Z,14.00
2022-11-20T00:03:55.713Z,13.07
2022-11-20T00:06:27.097Z,11.07
2022-11-20T00:09:00.914Z,10.50
2022-11-20T00:11:33.525Z,11.03
2022-11-20T00:14:03.061Z,11.03
2022-11-20T00:16:33.670Z,10.53
2022-11-20T00:19:00.570Z,11.03
2022-11-20T00:21:30.130Z,11.90
2022-11-20T00:23:58.350Z,11.50
2022-11-20T00:26:27.652Z,10.53
2022-11-20T00:28:58.025Z,10.53
2022-11-20T00:31:25.622Z,10.13
2022-11-20T00:33:53.025Z,15.90
2022-11-20T00:36:26.814Z,10.93
2022-11-20T00:38:56.658Z,12.80
2022-11-20T00:41:25.557Z,10.60
2022-11-20T00:43:54.888Z,11.10
2022-11-20T00:46:25.447Z,10.17
2022-11-20T00:48:52.458Z,11.17
2022-11-20T00:51:23.137Z,10.33
2022-11-20T00:53:50.903Z,11.33
2022-11-20T00:56:20.185Z,10.63
2022-11-20T00:58:49.467Z,11.87
2022-11-20T01:01:25.757Z,11.07
2022-11-20T01:03:57.167Z,12.40
2022-11-20T01:06:34.887Z,12.53
2022-11-20T01:09:07.313Z,12.47
2022-11-20T01:11:38.913Z,12.37
2022-11-20T01:14:10.922Z,11.60
2022-11-20T01:16:42.307Z,12.43
2022-11-20T01:19:17.722Z,11.50
2022-11-20T01:21:48.691Z,11.03
2022-11-20T01:24:18.284Z,10.97
2022-11-20T01:26:48.150Z,12.57
2022-11-20T01:29:24.936Z,11.53
2022-11-20T01:31:53.413Z,10.70
2022-11-20T01:34:22.958Z,12.33
2022-11-20T01:36:51.204Z,11.83
2022-11-20T01:39:24.603Z,12.07
2022-11-20T01:42:13.518Z,13.00
2022-11-20T01:44:54.890Z,12.07
2022-11-20T01:47:30.387Z,13.60
2022-11-20T01:50:15.404Z,12.33
2022-11-20T01:52:51.261Z,12.17
2022-11-20T01:55:29.633Z,11.77
2022-11-20T01:57:57.306Z,10.77
2022-11-20T02:00:24.054Z,11.50
2022-11-20T02:03:04.516Z,12.10
2022-11-20T02:05:50.341Z,13.33
2022-11-20T02:08:19.198Z,13.03
2022-11-20T02:10:46.020Z,11.73
2022-11-20T02:13:31.719Z,10.90
2022-11-20T02:15:58.903Z,12.13
2022-11-20T02:18:25.816Z,9.70
2022-11-20T02:21:07.509Z,13.00
2022-11-20T02:23:59.540Z,13.37
2022-11-20T02:26:29.662Z,10.17
2022-11-20T02:28:57.384Z,12.70
2022-11-20T02:31:24.174Z,12.53
2022-11-20T02:33:57.861Z,13.27
2022-11-20T02:36:28.604Z,13.37
2022-11-20T02:38:55.743Z,12.13
2022-11-20T02:41:23.081Z,10.20
2022-11-20T02:43:50.008Z,11.73
2022-11-20T02:46:16.765Z,12.77
2022-11-20T02:48:43.712Z,12.53
2022-11-20T02:51:11.604Z,12.67
2022-11-20T02:53:38.439Z,11.93
2022-11-20T02:56:05.901Z,11.80
2022-11-20T02:58:33.158Z,11.97
2022-11-20T03:01:00.054Z,11.97
2022-11-20T03:03:26.886Z,12.37
2022-11-20T03:05:53.845Z,13.83
2022-11-20T03:08:20.750Z,12.87
2022-11-20T03:10:47.644Z,11.60
2022-11-20T03:13:14.601Z,9.90
2022-11-20T03:15:41.569Z,12.93
2022-11-20T03:18:08.415Z,11.13
2022-11-20T03:20:35.472Z,11.70
2022-11-20T03:23:02.619Z,13.10
2022-11-20T03:25:29.474Z,11.20
2022-11-20T03:27:57.272Z,11.20
2022-11-20T03:30:29.218Z,10.80
2022-11-20T03:32:57.639Z,13.23
2022-11-20T03:35:24.412Z,13.63
2022-11-20T03:37:51.295Z,12.30
2022-11-20T03:40:18.312Z,11.70
2022-11-20T03:42:47.725Z,14.67
2022-11-20T03:45:19.680Z,13.87
2022-11-20T03:47:46.961Z,11.87
2022-11-20T03:50:14.908Z,12.50
2022-11-20T03:52:42.560Z,13.90
2022-11-20T03:55:09.641Z,12.90
2022-11-20T03:57:36.488Z,14.67
2022-11-20T04:00:05.492Z,14.77
2022-11-20T04:02:32.459Z,14.27
2022-11-20T04:04:59.428Z,14.97
2022-11-20T04:07:26.308Z,14.47
2022-11-20T04:09:53.178Z,12.83
2022-11-20T04:12:20.071Z,14.27
2022-11-20T04:14:46.895Z,14.70
2022-11-20T04:17:13.675Z,12.60
2022-11-20T04:19:40.509Z,12.33
2022-11-20T04:22:07.340Z,13.73
2022-11-20T04:24:34.169Z,12.37
2022-11-20T04:27:01.093Z,11.43
2022-11-20T04:29:27.888Z,13.73
2022-11-20T04:31:54.691Z,12.53
2022-11-20T04:34:21.510Z,12.90
2022-11-20T04:36:48.470Z,12.47
2022-11-20T04:39:16.429Z,12.07
2022-11-20T04:41:43.732Z,12.67
2022-11-20T04:44:10.973Z,11.53
2022-11-20T04:46:43.282Z,11.13
2022-11-20T04:49:12.351Z,10.90
2022-11-20T04:51:39.189Z,10.87
2022-11-20T04:54:06.903Z,11.23
2022-11-20T04:56:33.749Z,11.83
2022-11-20T04:59:03.840Z,11.17
2022-11-20T05:01:31.347Z,15.87
2022-11-20T05:03:58.228Z,10.90
2022-11-20T05:06:25.092Z,11.07
2022-11-20T05:08:51.919Z,12.23
2022-11-20T05:11:21.966Z,11.63
2022-11-20T05:13:51.199Z,11.00
2022-11-20T05:16:22.631Z,9.87
2022-11-20T05:18:51.373Z,12.87
2022-11-20T05:21:19.243Z,11.97
2022-11-20T05:23:46.835Z,13.00
2022-11-20T05:26:22.472Z,11.93
2022-11-20T05:28:50.914Z,12.53
2022-11-20T05:31:27.604Z,11.77
2022-11-20T05:33:57.722Z,11.40
2022-11-20T05:36:25.493Z,12.87
2022-11-20T05:38:55.444Z,10.30
2022-11-20T05:41:26.054Z,10.37
2022-11-20T05:43:52.929Z,15.73
2022-11-20T05:46:27.800Z,11.17
2022-11-20T05:48:57.166Z,13.40
2022-11-20T05:51:25.524Z,11.53
2022-11-20T05:53:52.467Z,11.27
2022-11-20T05:56:22.059Z,12.03
2022-11-20T05:58:50.127Z,11.60
2022-11-20T06:01:27.281Z,10.73
2022-11-20T06:03:55.040Z,12.03
2022-11-20T06:06:22.376Z,12.17
2022-11-20T06:08:49.761Z,12.57
2022-11-20T06:11:17.945Z,13.57
2022-11-20T06:13:46.386Z,11.67
2022-11-20T06:16:16.963Z,11.77
2022-11-20T06:18:43.869Z,12.33
2022-11-20T06:21:14.436Z,11.53
2022-11-20T06:23:42.568Z,12.10
2022-11-20T06:26:24.088Z,11.30
2022-11-20T06:28:52.259Z,10.70
2022-11-20T06:31:23.578Z,12.60
2022-11-20T06:33:51.306Z,11.40
2022-11-20T06:36:21.650Z,11.87
2022-11-20T06:38:49.140Z,10.30
2022-11-20T06:41:20.140Z,10.80
2022-11-20T06:43:47.666Z,12.27
2022-11-20T06:46:20.000Z,10.87
2022-11-20T06:48:48.785Z,11.40
2022-11-20T06:51:16.160Z,11.07
2022-11-20T06:53:42.988Z,11.17
2022-11-20T06:56:10.177Z,12.47
2022-11-20T06:58:37.650Z,12.50
2022-11-20T07:01:11.026Z,12.20
2022-11-20T07:03:38.779Z,15.00
2022-11-20T07:06:07.022Z,10.40
2022-11-20T07:08:35.871Z,11.47
2022-11-20T07:11:06.446Z,11.83
2022-11-20T07:13:34.375Z,15.27
2022-11-20T07:16:04.498Z,11.60
2022-11-20T07:18:31.554Z,13.10
2022-11-20T07:21:03.866Z,12.10
2022-11-20T07:23:30.941Z,10.87
2022-11-20T07:25:57.881Z,11.57
2022-11-20T07:28:24.819Z,11.93
2022-11-20T07:30:53.930Z,12.13
2022-11-20T07:33:21.908Z,12.17
2022-11-20T07:35:51.330Z,12.90
2022-11-20T07:38:18.285Z,12.10
2022-11-20T07:40:45.102Z,12.47
2022-11-20T07:43:12.041Z,11.43
2022-11-20T07:45:39.004Z,11.30
2022-11-20T07:48:05.959Z,13.03
2022-11-20T07:50:32.772Z,10.50
2022-11-20T07:53:05.506Z,13.90
2022-11-20T07:55:33.628Z,10.93
2022-11-20T07:58:00.588Z,12.10
2022-11-20T08:00:28.381Z,12.63
2022-11-20T08:02:55.463Z,12.67
2022-11-20T08:05:22.305Z,11.47
2022-11-20T08:07:49.540Z,11.70
2022-11-20T08:10:17.178Z,13.33
2022-11-20T08:13:08.442Z,11.50
2022-11-20T08:15:37.856Z,12.27
2022-11-20T08:21:04.452Z,10.67
2022-11-20T08:23:31.284Z,12.73
2022-11-20T08:25:58.354Z,12.43
2022-11-20T08:28:25.195Z,12.17
2022-11-20T08:30:52.024Z,10.53
2022-11-20T08:33:19.219Z,13.10
2022-11-20T08:35:46.412Z,13.03
2022-11-20T08:38:13.329Z,11.90
2022-11-20T08:40:40.098Z,13.40
2022-11-20T08:43:06.975Z,12.47
2022-11-20T08:45:35.287Z,12.83
2022-11-20T08:48:05.835Z,13.23
2022-11-20T08:50:33.948Z,13.10
2022-11-20T08:53:07.729Z,12.53
2022-11-20T08:55:36.437Z,13.87
2022-11-20T08:58:07.445Z,14.93
2022-11-20T09:00:35.139Z,16.73
2022-11-20T09:03:02.832Z,14.00
2022-11-20T09:05:30.136Z,15.60
2022-11-20T09:08:00.663Z,20.20
2022-11-20T09:10:28.806Z,19.93
2022-11-20T09:12:56.695Z,21.30
2022-11-20T09:15:25.433Z,23.53
2022-11-20T09:17:59.349Z,22.77
2022-11-20T09:20:29.876Z,22.83
2022-11-20T09:22:58.099Z,22.83
2022-11-20T09:25:24.947Z,24.33
2022-11-20T09:27:59.667Z,22.30
2022-11-20T09:30:27.635Z,21.53
2022-11-20T09:32:54.501Z,24.00
2022-11-20T09:35:21.324Z,23.57
2022-11-20T09:37:49.175Z,23.90
2022-11-20T09:40:27.284Z,22.67
2022-11-20T09:43:35.255Z,21.43
2022-11-20T09:46:23.419Z,23.37
2022-11-20T09:49:32.137Z,21.77
2022-11-20T09:52:48.997Z,21.90
2022-11-20T09:55:17.562Z,21.57
2022-11-20T09:57:49.087Z,25.40
2022-11-20T10:00:18.355Z,24.50
2022-11-20T10:03:04.340Z,23.37
2022-11-20T10:05:46.103Z,23.50
2022-11-20T10:08:45.457Z,27.20
2022-11-20T10:11:43.711Z,26.23
2022-11-20T10:14:27.957Z,27.10
2022-11-20T10:17:04.824Z,24.00
2022-11-20T10:20:16.808Z,24.37
2022-11-20T10:23:28.409Z,26.30
2022-11-20T10:26:22.598Z,25.20
2022-11-20T10:29:04.682Z,24.17
2022-11-20T10:31:38.590Z,24.07
2022-11-20T10:34:32.929Z,24.37
2022-11-20T10:37:16.574Z,22.67
2022-11-20T10:40:01.192Z,25.10
2022-11-20T10:42:38.748Z,24.77
2022-11-20T10:45:43.245Z,22.67
2022-11-20T10:48:22.141Z,23.53
2022-11-20T10:51:16.421Z,20.13
2022-11-20T10:53:59.583Z,24.07
2022-11-20T10:56:50.087Z,21.03
2022-11-20T10:59:28.670Z,21.10
2022-11-20T11:01:55.595Z,23.57
2022-11-20T11:04:43.852Z,23.07
2022-11-20T11:07:31.703Z,22.13
2022-11-20T11:09:58.601Z,23.67
2022-11-20T11:12:29.330Z,22.43
2022-11-20T11:14:58.642Z,21.67
2022-11-20T11:17:35.389Z,25.93
2022-11-20T11:20:18.665Z,25.23
2022-11-20T11:22:56.007Z,23.07
2022-11-20T11:25:27.577Z,23.60
2022-11-20T11:28:23.359Z,21.97
2022-11-20T11:30:50.364Z,24.10
2022-11-20T11:33:24.937Z,22.70
2022-11-20T11:36:18.836Z,22.10
2022-11-20T11:38:45.809Z,22.13
2022-11-20T11:41:24.838Z,25.53
2022-11-20T11:44:32.108Z,24.80
2022-11-20T11:46:59.913Z,25.13
2022-11-20T11:49:26.726Z,23.87
2022-11-20T11:52:03.113Z,23.43
2022-11-20T11:54:56.583Z,25.67
2022-11-20T11:57:39.875Z,21.73
2022-11-20T12:00:12.100Z,22.80
2022-11-20T12:02:50.484Z,22.17
2022-11-20T12:05:44.178Z,23.37
2022-11-20T12:08:27.549Z,25.13
2022-11-20T12:11:11.571Z,23.13
2022-11-20T12:14:24.847Z,22.77
2022-11-20T12:16:53.701Z,23.67
2022-11-20T12:19:21.177Z,25.10
2022-11-20T12:22:07.380Z,24.33
2022-11-20T12:24:59.785Z,22.60
2022-11-20T12:27:47.718Z,25.30
2022-11-20T12:30:18.294Z,22.70
2022-11-20T12:33:28.242Z,23.93
2022-11-20T12:36:18.700Z,23.53
2022-11-20T12:39:13.132Z,21.90
2022-11-20T12:42:38.675Z,26.93
2022-11-20T12:45:53.022Z,25.23
2022-11-20T12:48:41.057Z,23.53
2022-11-20T12:51:29.795Z,22.27
2022-11-20T12:54:43.238Z,24.70
2022-11-20T12:58:25.856Z,27.10
2022-11-20T13:01:43.392Z,22.80
2022-11-20T13:04:42.517Z,23.40
2022-11-20T13:07:15.519Z,26.23
2022-11-20T13:09:50.505Z,22.53
2022-11-20T13:12:41.480Z,24.93
2022-11-20T13:15:35.598Z,24.43
2022-11-20T13:18:09.297Z,23.93
2022-11-20T13:20:37.223Z,24.77
2022-11-20T13:23:04.030Z,24.23
2022-11-20T13:25:37.220Z,24.07
2022-11-20T13:28:29.516Z,24.33
2022-11-20T13:30:58.703Z,26.57
2022-11-20T13:33:39.013Z,24.87
2022-11-20T13:36:28.511Z,25.23
2022-11-20T13:38:57.395Z,23.90
2022-11-20T13:41:36.159Z,26.10
2022-11-20T13:44:24.642Z,24.20
2022-11-20T13:46:51.858Z,24.00
2022-11-20T13:49:41.145Z,21.30
2022-11-20T13:52:44.056Z,22.47
2022-11-20T13:55:47.857Z,22.93
2022-11-20T13:58:55.980Z,26.13
2022-11-20T14:01:27.262Z,21.43
2022-11-20T14:04:09.875Z,21.80
2022-11-20T14:06:46.373Z,26.57
2022-11-20T14:09:33.122Z,21.50
2022-11-20T14:12:00.315Z,22.07
2022-11-20T14:14:34.069Z,24.40
2022-11-20T14:17:39.061Z,25.70
2022-11-20T14:20:15.817Z,23.57
2022-11-20T14:22:54.198Z,23.13
2022-11-20T14:25:28.064Z,24.53
2022-11-20T14:28:01.717Z,26.00
2022-11-20T14:30:48.381Z,26.43
2022-11-20T14:33:16.933Z,27.47
2022-11-20T14:35:50.991Z,22.50
2022-11-20T14:38:23.186Z,23.00
2022-11-20T14:40:50.437Z,23.87
2022-11-20T14:43:27.931Z,24.93
2022-11-20T14:46:05.983Z,26.77
2022-11-20T14:48:49.032Z,24.67
2022-11-20T14:51:39.227Z,23.07
2022-11-20T14:54:26.969Z,22.33
2022-11-20T14:57:02.651Z,23.93
2022-11-20T14:59:35.391Z,24.87
2022-11-20T15:02:09.520Z,23.10
2022-11-20T15:04:51.659Z,22.97
2022-11-20T15:07:27.971Z,23.70
2022-11-20T15:10:23.162Z,23.50
2022-11-20T15:13:13.050Z,24.57
2022-11-20T15:15:56.177Z,23.23
2022-11-20T15:18:32.014Z,25.20
2022-11-20T15:21:04.204Z,26.87
2022-11-20T15:23:31.206Z,19.83
2022-11-20T15:25:58.709Z,20.67
2022-11-20T15:28:44.135Z,27.50
2022-11-20T15:31:15.126Z,21.50
2022-11-20T15:33:43.436Z,22.27
2022-11-20T15:36:10.849Z,21.50
2022-11-20T15:38:38.166Z,21.90
2022-11-20T15:41:05.821Z,20.93
2022-11-20T15:43:32.622Z,19.97
2022-11-20T15:46:17.041Z,18.83
2022-11-20T15:48:49.639Z,19.73
2022-11-20T15:51:31.444Z,17.90
2022-11-20T15:53:59.353Z,19.97
2022-11-20T15:56:26.880Z,16.53
2022-11-20T15:58:54.084Z,16.70
2022-11-20T16:01:23.509Z,18.37
2022-11-20T16:03:50.565Z,17.90
2022-11-20T16:06:17.620Z,19.03
2022-11-20T16:08:44.867Z,13.40
2022-11-20T16:11:18.250Z,15.33
2022-11-20T16:14:04.687Z,12.73
2022-11-20T16:16:37.382Z,12.87
2022-11-20T16:19:04.912Z,13.80
2022-11-20T16:21:32.624Z,16.57
2022-11-20T16:24:06.669Z,10.67
2022-11-20T16:26:34.505Z,12.97
2022-11-20T16:29:03.707Z,7.20
2022-11-20T16:31:30.967Z,8.27
2022-11-20T16:34:10.049Z,5.10
2022-11-20T16:36:42.296Z,6.27
2022-11-20T16:39:10.122Z,4.53
2022-11-20T16:41:37.271Z,3.17
2022-11-20T16:44:10.595Z,3.57
2022-11-20T16:46:39.015Z,2.77
2022-11-20T16:49:11.743Z,3.17
2022-11-20T16:51:38.838Z,3.43
2022-11-20T16:54:08.219Z,3.00
2022-11-20T16:56:35.426Z,2.90
2022-11-20T16:59:02.795Z,2.70
2022-11-20T17:01:31.377Z,2.90
2022-11-20T17:04:01.351Z,4.20
2022-11-20T17:06:32.440Z,2.70
2022-11-20T17:08:59.573Z,3.00
2022-11-20T17:11:27.725Z,2.47
2022-11-20T17:14:03.488Z,9.53
2022-11-20T17:16:31.466Z,2.60
2022-11-20T17:19:03.279Z,2.80
2022-11-20T17:21:32.903Z,4.93
2022-11-20T17:24:09.955Z,3.67
2022-11-20T17:26:39.647Z,3.47
2022-11-20T17:29:13.671Z,4.30
2022-11-20T17:31:41.492Z,4.83
2022-11-20T17:34:12.321Z,4.33
2022-11-20T17:36:45.541Z,4.83
2022-11-20T17:39:15.623Z,5.27
2022-11-20T17:41:42.677Z,5.43
2022-11-20T17:44:11.794Z,7.50
2022-11-20T17:46:38.667Z,11.10
2022-11-20T17:49:06.009Z,23.37
2022-11-20T17:51:35.092Z,14.83
2022-11-20T17:54:07.315Z,14.40
2022-11-20T17:56:54.148Z,9.77
2022-11-20T17:59:21.447Z,10.57
2022-11-20T18:01:48.412Z,8.40
2022-11-20T18:04:16.805Z,6.00
2022-11-20T18:06:44.172Z,8.90
2022-11-20T18:09:11.546Z,8.57
2022-11-20T18:11:41.537Z,9.53
2022-11-20T18:14:28.962Z,7.43
2022-11-20T18:17:02.952Z,9.33
2022-11-20T18:19:41.260Z,9.97
2022-11-20T18:22:18.614Z,6.33
2022-11-20T18:24:46.172Z,8.57
2022-11-20T18:27:19.811Z,9.40
2022-11-20T18:29:51.561Z,10.13
2022-11-20T18:32:21.472Z,9.40
2022-11-20T18:34:49.878Z,9.70
2022-11-20T18:37:17.413Z,10.30
2022-11-20T18:39:44.409Z,7.70
2022-11-20T18:42:32.927Z,9.10
2022-11-20T18:45:01.307Z,7.23
2022-11-20T18:47:37.182Z,11.33
2022-11-20T18:50:07.774Z,7.37
2022-11-20T18:52:41.629Z,10.83
2022-11-20T18:55:10.055Z,8.30
2022-11-20T18:57:36.903Z,11.10
2022-11-20T19:00:09.434Z,8.67
2022-11-20T19:02:42.989Z,13.00
2022-11-20T19:05:12.458Z,10.63
2022-11-20T19:07:39.654Z,9.07
2022-11-20T19:10:07.777Z,9.67
2022-11-20T19:12:34.650Z,11.77
2022-11-20T19:15:01.613Z,10.00
2022-11-20T19:17:28.548Z,11.23
2022-11-20T19:19:55.605Z,10.33
2022-11-20T19:22:22.669Z,9.23
2022-11-20T19:24:49.713Z,9.47
2022-11-20T19:27:16.703Z,12.23
2022-11-20T19:29:43.527Z,13.33
2022-11-20T19:32:10.359Z,10.20
2022-11-20T19:34:37.162Z,12.40
2022-11-20T19:37:05.117Z,11.00
2022-11-20T19:39:31.918Z,11.47
2022-11-20T19:41:58.709Z,10.97
2022-11-20T19:44:25.676Z,10.40
2022-11-20T19:46:52.583Z,10.53
2022-11-20T19:49:19.413Z,13.30
2022-11-20T19:51:49.194Z,9.70
2022-11-20T19:54:17.354Z,10.63
2022-11-20T19:56:45.411Z,12.40
2022-11-20T19:59:13.015Z,11.17
2022-11-20T20:01:40.202Z,10.63
2022-11-20T20:04:07.132Z,9.63
2022-11-20T20:06:41.580Z,9.07
2022-11-20T20:09:12.583Z,11.57
2022-11-20T20:11:40.848Z,9.43
2022-11-20T20:14:14.494Z,10.27
2022-11-20T20:16:42.786Z,9.03
2022-11-20T20:19:14.561Z,12.67
2022-11-20T20:21:41.789Z,9.73
2022-11-20T20:24:12.127Z,10.40
2022-11-20T20:26:39.533Z,12.17
2022-11-20T20:29:06.373Z,12.33
2022-11-20T20:31:34.673Z,12.50
2022-11-20T20:34:03.357Z,10.80
2022-11-20T20:36:30.346Z,10.43
2022-11-20T20:39:04.828Z,7.63
2022-11-20T20:41:31.896Z,10.80
2022-11-20T20:44:17.308Z,12.30
2022-11-20T20:46:44.243Z,10.83
2022-11-20T20:49:11.238Z,10.40
2022-11-20T20:51:38.552Z,7.93
2022-11-20T20:54:05.738Z,9.73
2022-11-20T20:56:32.766Z,13.00
2022-11-20T20:58:59.611Z,12.43
2022-11-20T21:01:28.827Z,9.07
2022-11-20T21:03:57.374Z,11.43
2022-11-20T21:06:25.018Z,11.40
2022-11-20T21:08:52.363Z,10.23
2022-11-20T21:11:20.716Z,9.93
2022-11-20T21:13:49.475Z,9.80
2022-11-20T21:16:20.625Z,9.73
2022-11-20T21:18:47.623Z,8.97
2022-11-20T21:21:35.252Z,10.33
2022-11-20T21:24:03.375Z,9.03
2022-11-20T21:26:30.200Z,8.43
2022-11-20T21:28:57.948Z,9.73
2022-11-20T21:31:27.192Z,8.27
2022-11-20T21:33:56.824Z,10.00
2022-11-20T21:36:27.987Z,10.23
2022-11-20T21:38:56.542Z,12.17
2022-11-20T21:41:26.569Z,8.80
2022-11-20T21:44:16.283Z,8.67
2022-11-20T21:46:45.542Z,7.07
2022-11-20T21:49:14.444Z,8.97
2022-11-20T21:51:41.717Z,5.80
2022-11-20T21:54:10.976Z,9.70
2022-11-20T21:56:38.437Z,11.63
2022-11-20T21:59:05.310Z,8.97
2022-11-20T22:01:32.283Z,8.43
2022-11-20T22:04:02.407Z,8.07
2022-11-20T22:06:34.788Z,9.67
2022-11-20T22:09:03.537Z,8.40
2022-11-20T22:11:30.657Z,14.40
2022-11-20T22:14:36.352Z,10.17
2022-11-20T22:17:03.189Z,10.37
2022-11-20T22:19:30.013Z,9.40
2022-11-20T22:21:59.576Z,8.43
2022-11-20T22:24:26.672Z,9.57
2022-11-20T22:26:53.773Z,11.50
2022-11-20T22:29:21.506Z,6.87
2022-11-20T22:31:51.508Z,10.00
2022-11-20T22:34:18.344Z,6.83
2022-11-20T22:36:45.645Z,9.33
2022-11-20T22:39:12.519Z,14.43
2022-11-20T22:41:39.332Z,11.00
2022-11-20T22:44:08.134Z,10.83
2022-11-20T22:46:37.710Z,9.43
2022-11-20T22:49:10.657Z,7.93
2022-11-20T22:51:41.000Z,10.33
2022-11-20T22:54:11.247Z,8.30
2022-11-20T22:56:38.177Z,10.97
2022-11-20T22:59:05.337Z,10.00
2022-11-20T23:01:38.314Z,8.47
2022-11-20T23:04:10.654Z,9.47
2022-11-20T23:06:38.137Z,5.77
2022-11-20T23:09:07.092Z,5.73
2022-11-20T23:11:35.267Z,8.57
2022-11-20T23:14:14.562Z,10.00
2022-11-20T23:16:42.118Z,7.60
2022-11-20T23:19:12.821Z,10.00
2022-11-20T23:21:42.098Z,9.07
2022-11-20T23:24:10.457Z,8.70
2022-11-20T23:26:40.537Z,7.93
2022-11-20T23:29:08.178Z,10.17
2022-11-20T23:31:36.083Z,9.47
2022-11-20T23:34:04.397Z,8.53
2022-11-20T23:36:34.181Z,10.13
2022-11-20T23:39:01.127Z,6.53
2022-11-20T23:41:28.013Z,10.83
2022-11-20T23:43:56.428Z,6.37
2022-11-20T23:46:23.304Z,5.93
2022-11-20T23:48:51.222Z,7.03
2022-11-20T23:51:18.423Z,6.97
2022-11-20T23:53:45.719Z,5.57
2022-11-20T23:56:14.820Z,10.87
2022-11-20T23:58:42.403Z,6.60
